createdAt,value
2022-09-23T00:00:06.211Z,11.57
2022-09-23T00:05:30.969Z,11.75
2022-09-23T00:10:38.040Z,14.88
2022-09-23T00:15:43.053Z,12.25
2022-09-23T00:20:46.852Z,10.60
2022-09-23T00:25:57.129Z,11.65
2022-09-23T00:31:05.231Z,11.55
2022-09-23T00:36:11.363Z,12.43
2022-09-23T00:41:16.450Z,12.38
2022-09-23T00:46:23.988Z,13.32
2022-09-23T00:51:34.618Z,11.18
2022-09-23T00:56:40.374Z,14.38
2022-09-23T01:01:45.736Z,9.52
2022-09-23T01:06:49.513Z,9.95
2022-09-23T01:12:01.327Z,10.00
2022-09-23T01:17:11.099Z,9.55
2022-09-23T01:22:22.993Z,14.35
2022-09-23T01:27:47.950Z,8.65
2022-09-23T01:33:04.802Z,10.80
2022-09-23T01:38:18.196Z,10.80
2022-09-23T01:43:28.895Z,10.57
2022-09-23T01:48:40.133Z,12.15
2022-09-23T01:53:48.985Z,11.77
2022-09-23T01:58:57.894Z,10.35
2022-09-23T02:04:08.898Z,13.57
2022-09-23T02:09:15.951Z,11.43
2022-09-23T02:14:25.562Z,13.40
2022-09-23T02:19:35.386Z,14.45
2022-09-23T02:24:40.783Z,12.18
2022-09-23T02:29:54.958Z,10.77
2022-09-23T02:35:07.409Z,10.48
2022-09-23T02:40:17.935Z,11.93
2022-09-23T02:45:21.739Z,11.40
2022-09-23T02:50:26.894Z,15.48
2022-09-23T02:55:32.444Z,16.13
2022-09-23T03:00:50.188Z,17.83
2022-09-23T03:05:59.735Z,10.82
2022-09-23T03:11:07.647Z,15.35
2022-09-23T03:16:18.076Z,10.23
2022-09-23T03:21:26.406Z,11.38
2022-09-23T03:26:32.561Z,10.73
2022-09-23T03:31:39.818Z,10.50
2022-09-23T03:36:53.880Z,11.48
2022-09-23T03:42:02.008Z,12.75
2022-09-23T03:47:06.581Z,10.82
2022-09-23T03:52:12.212Z,10.27
2022-09-23T03:57:16.575Z,10.13
2022-09-23T04:02:21.473Z,11.43
2022-09-23T04:07:26.661Z,11.05
2022-09-23T04:12:30.358Z,12.90
2022-09-23T04:17:35.021Z,12.50
2022-09-23T04:22:40.031Z,15.13
2022-09-23T04:27:43.690Z,13.30
2022-09-23T04:32:47.469Z,14.05
2022-09-23T04:37:52.677Z,13.13
2022-09-23T04:42:56.640Z,15.95
2022-09-23T04:48:00.590Z,12.93
2022-09-23T04:53:07.186Z,16.40
2022-09-23T04:58:11.774Z,17.00
2022-09-23T05:03:16.228Z,11.52
2022-09-23T05:08:22.219Z,17.70
2022-09-23T05:13:26.171Z,16.63
2022-09-23T05:18:32.465Z,14.82
2022-09-23T05:23:38.039Z,14.85
2022-09-23T05:28:41.901Z,13.45
2022-09-23T05:33:48.798Z,18.60
2022-09-23T05:38:56.721Z,12.60
2022-09-23T05:44:00.888Z,14.35
2022-09-23T05:49:06.014Z,18.48
2022-09-23T05:54:12.453Z,17.20
2022-09-23T05:59:16.243Z,13.07
2022-09-23T06:04:20.222Z,18.80
2022-09-23T06:09:25.771Z,18.50
2022-09-23T06:14:29.637Z,14.15
2022-09-23T06:19:33.521Z,14.93
2022-09-23T06:24:38.809Z,13.80
2022-09-23T06:29:43.089Z,18.23
2022-09-23T06:34:51.941Z,15.75
2022-09-23T06:39:57.470Z,14.27
2022-09-23T06:45:02.297Z,13.18
2022-09-23T06:50:07.790Z,13.02
2022-09-23T06:55:13.145Z,19.83
2022-09-23T07:00:17.329Z,16.50
2022-09-23T07:05:22.504Z,15.07
2022-09-23T07:10:28.202Z,12.20
2022-09-23T07:15:32.872Z,14.32
2022-09-23T07:20:39.599Z,16.48
2022-09-23T07:25:46.907Z,12.73
2022-09-23T07:30:59.561Z,16.38
2022-09-23T07:36:10.338Z,13.48
2022-09-23T07:41:18.117Z,12.23
2022-09-23T07:46:25.329Z,12.77
2022-09-23T07:51:36.133Z,15.38
2022-09-23T07:56:44.198Z,16.67
2022-09-23T08:01:50.412Z,13.65
2022-09-23T08:06:55.736Z,14.43
2022-09-23T08:12:01.534Z,14.20
2022-09-23T08:17:06.017Z,12.77
2022-09-23T08:22:10.120Z,14.90
2022-09-23T08:27:15.349Z,17.52
2022-09-23T08:32:19.117Z,11.17
2022-09-23T08:37:23.211Z,12.45
2022-09-23T08:42:32.879Z,10.25
2022-09-23T08:47:45.608Z,8.30
2022-09-23T08:52:53.249Z,8.15
2022-09-23T08:58:26.232Z,7.95
2022-09-23T09:03:36.608Z,10.65
2022-09-23T09:08:41.433Z,11.45
2022-09-23T09:13:54.623Z,8.83
2022-09-23T09:19:00.476Z,14.70
2022-09-23T09:24:14.034Z,8.50
2022-09-23T09:29:42.434Z,6.60
2022-09-23T09:34:54.833Z,6.03
2022-09-23T09:39:58.654Z,8.93
2022-09-23T09:45:12.850Z,8.80
2022-09-23T09:50:21.812Z,8.18
2022-09-23T09:55:28.655Z,5.70
2022-09-23T10:00:42.956Z,6.13
2022-09-23T10:05:52.357Z,6.05
2022-09-23T10:11:02.699Z,4.53
2022-09-23T10:16:08.846Z,3.95
2022-09-23T10:21:15.291Z,3.83
2022-09-23T10:26:27.976Z,4.35
2022-09-23T10:31:35.264Z,4.57
2022-09-23T10:36:43.765Z,4.07
2022-09-23T10:42:17.349Z,4.95
2022-09-23T10:47:34.626Z,5.85
2022-09-23T10:52:51.230Z,5.30
2022-09-23T10:58:11.775Z,5.50
2022-09-23T11:03:34.167Z,4.32
2022-09-23T11:08:51.750Z,4.30
2022-09-23T11:14:07.369Z,4.97
2022-09-23T11:19:33.320Z,3.42
2022-09-23T11:25:06.880Z,3.73
2022-09-23T11:30:15.005Z,2.72
2022-09-23T11:35:25.090Z,2.60
2022-09-23T11:40:33.270Z,2.88
2022-09-23T11:45:43.024Z,2.58
2022-09-23T11:50:57.258Z,2.00
2022-09-23T11:56:07.173Z,5.70
2022-09-23T12:01:36.455Z,4.00
2022-09-23T12:06:46.618Z,3.25
2022-09-23T12:11:58.648Z,2.67
2022-09-23T12:17:17.793Z,4.80
2022-09-23T12:22:40.716Z,3.35
2022-09-23T12:27:48.150Z,5.68
2022-09-23T12:32:52.363Z,2.92
2022-09-23T12:37:58.262Z,4.05
2022-09-23T12:48:28.123Z,12.90
2022-09-23T12:53:55.539Z,8.17
2022-09-23T12:59:26.365Z,7.05
2022-09-23T13:05:01.494Z,5.18
2022-09-23T13:10:16.882Z,4.78
2022-09-23T13:15:30.015Z,7.05
2022-09-23T13:20:38.562Z,4.93
2022-09-23T13:25:45.244Z,7.57
2022-09-23T13:30:52.232Z,3.97
2022-09-23T13:36:02.353Z,2.40
2022-09-23T13:41:12.450Z,3.97
2022-09-23T13:46:19.606Z,4.47
2022-09-23T13:51:25.999Z,4.03
2022-09-23T13:56:33.354Z,3.05
2022-09-23T14:01:37.390Z,4.78
2022-09-23T14:06:42.566Z,4.05
2022-09-23T14:11:48.038Z,4.43
2022-09-23T14:16:52.890Z,4.13
2022-09-23T14:21:57.652Z,4.07
2022-09-23T14:27:12.171Z,7.10
2022-09-23T14:32:21.178Z,4.28
2022-09-23T14:37:47.355Z,4.00
2022-09-23T14:48:01.193Z,7.50
2022-09-23T14:53:05.676Z,7.68
2022-09-23T14:58:18.441Z,9.43
2022-09-23T15:03:22.713Z,11.85
2022-09-23T15:08:29.130Z,6.40
2022-09-23T15:13:39.616Z,7.97
2022-09-23T15:18:46.503Z,6.55
2022-09-23T15:23:54.973Z,9.55
2022-09-23T15:29:02.152Z,10.05
2022-09-23T15:34:06.715Z,8.05
2022-09-23T15:39:13.497Z,9.70
2022-09-23T15:44:21.832Z,17.08
2022-09-23T15:49:30.194Z,10.60
2022-09-23T15:54:34.572Z,13.73
2022-09-23T15:59:40.239Z,17.75
2022-09-23T16:04:47.334Z,42.47
2022-09-23T16:09:51.881Z,57.42
2022-09-23T16:14:57.095Z,84.10
2022-09-23T16:20:16.786Z,60.22
2022-09-23T16:25:30.242Z,30.00
2022-09-23T16:30:35.780Z,59.00
2022-09-23T16:35:39.977Z,47.45
2022-09-23T16:40:47.215Z,63.88
2022-09-23T16:45:52.981Z,55.03
2022-09-23T16:50:56.881Z,331.92
2022-09-23T16:56:06.671Z,171.45
2022-09-23T17:01:33.930Z,150.50
2022-09-23T17:06:43.274Z,79.05
2022-09-23T17:11:48.334Z,153.13
2022-09-23T17:16:53.773Z,121.63
2022-09-23T17:21:57.584Z,114.70
2022-09-23T17:27:01.565Z,118.82
2022-09-23T17:32:08.723Z,212.25
2022-09-23T17:37:12.754Z,267.75
2022-09-23T17:42:18.825Z,161.55
2022-09-23T17:52:27.761Z,132.05
2022-09-23T17:57:31.644Z,119.35
2022-09-23T18:02:37.024Z,148.48
2022-09-23T18:07:40.857Z,109.50
2022-09-23T18:12:44.898Z,89.70
2022-09-23T18:17:50.236Z,79.05
2022-09-23T18:22:54.118Z,84.45
2022-09-23T18:27:57.949Z,68.15
2022-09-23T18:33:03.510Z,86.57
2022-09-23T18:38:07.825Z,88.97
2022-09-23T18:43:11.818Z,85.70
2022-09-23T18:48:39.440Z,82.60
2022-09-23T18:53:44.003Z,66.40
2022-09-23T18:58:48.425Z,83.50
2022-09-23T19:03:56.793Z,78.90
2022-09-23T19:09:00.721Z,80.07
2022-09-23T19:14:06.748Z,81.38
2022-09-23T19:24:20.033Z,77.75
2022-09-23T19:29:24.915Z,105.70
2022-09-23T19:34:30.895Z,97.22
2022-09-23T19:39:35.207Z,67.57
2022-09-23T19:44:39.385Z,71.30
2022-09-23T19:49:44.823Z,69.60
2022-09-23T19:54:49.131Z,64.50
2022-09-23T19:59:52.966Z,57.70
2022-09-23T20:04:58.012Z,57.25
2022-09-23T20:10:01.989Z,61.25
2022-09-23T20:15:06.807Z,60.92
2022-09-23T20:20:15.889Z,59.70
2022-09-23T20:25:19.901Z,71.50
2022-09-23T20:30:23.702Z,61.80
2022-09-23T20:36:17.405Z,63.92
2022-09-23T20:41:21.260Z,61.00
2022-09-23T20:46:25.075Z,47.33
2022-09-23T20:51:33.419Z,46.63
2022-09-23T20:56:37.773Z,53.40
2022-09-23T21:01:42.852Z,44.20
2022-09-23T21:06:48.144Z,44.30
2022-09-23T21:11:51.827Z,48.33
2022-09-23T21:16:55.853Z,46.47
2022-09-23T21:22:01.115Z,37.95
2022-09-23T21:27:04.976Z,39.23
2022-09-23T21:32:08.915Z,59.20
2022-09-23T21:37:14.041Z,36.17
2022-09-23T21:42:17.878Z,43.73
2022-09-23T21:47:21.746Z,49.67
2022-09-23T21:52:26.924Z,42.10
2022-09-23T21:57:31.129Z,34.57
2022-09-23T22:02:35.379Z,32.97
2022-09-23T22:07:40.390Z,32.92
2022-09-23T22:12:44.988Z,39.05
2022-09-23T22:17:48.964Z,31.15
2022-09-23T22:22:54.274Z,31.75
2022-09-23T22:28:17.594Z,36.47
2022-09-23T22:33:22.179Z,20.42
2022-09-23T22:38:27.705Z,23.40
2022-09-23T22:43:33.821Z,25.42
2022-09-23T22:53:42.646Z,30.92
2022-09-23T22:58:46.961Z,21.33
2022-09-23T23:03:54.432Z,23.00
2022-09-23T23:09:00.126Z,81.88
2022-09-23T23:14:04.569Z,84.30
2022-09-23T23:19:12.131Z,67.47
2022-09-23T23:24:19.068Z,38.50
2022-09-23T23:29:23.745Z,31.95
2022-09-23T23:34:27.991Z,21.10
2022-09-23T23:39:34.872Z,19.70
2022-09-23T23:44:38.669Z,20.95
2022-09-23T23:49:42.315Z,35.10
2022-09-23T23:54:47.541Z,29.60
2022-09-23T23:59:51.538Z,27.13
